Aérodrome :
LOGIN :

S'inscrire | Disclaimer

   EN    FR    IT 

 










Légende :    VFR   VFR Marginal   IFR   IFR Intensif   IFR Très Intensif
Visi : 
Plafond : 
>= 8 km
>= 3000ft
5 à 8 km
1000 à 3000 ft
1500m à 5 km
500 à 1000 ft
800 à 1500m
200 à 500 ft
< 800m
< 200 ft
Symboles :   Orages  Brouillard  Fortes neiges  Fortes précipitations  Vent > 20 kt
SIGMETs :   Divers  Orages  Givrage  Turbulence  Onde Orograph.  Cendres Volcan.






- Altitude de l'aérodrome : 112 ft
- Code IATA : SVQ


LEZL - Sevilla San Pablo

DERNIER METAR :
  • 151300Z 09003KT CAVOK 21/03 Q1022 NOSIG

METARs EXPIRÉS :
  • 151230Z 14003KT 080V200 CAVOK 20/04 Q1022 NOSIG
  • 151200Z 12003KT CAVOK 19/05 Q1022 NOSIG
  • 151130Z 06003KT CAVOK 20/05 Q1023 NOSIG
  • 151100Z 06004KT 360V120 CAVOK 19/05 Q1023 NOSIG
  • 151030Z 06004KT 360V120 CAVOK 18/05 Q1023 NOSIG

TAF TAF LEZL
Valide du 15 à 09h jusqu'au 16 à 09h UTC


150800Z 1509/1609 04005KT CAVOK TX23/1515Z TN11/1606Z



MET'MAP, la Météo Aéronautique d'un coup d'oeil ! - Copyright ORBIFLY Décembre 2007 - Disclaimer

ORBIFLY MET'MAP TEAM :

Programmation & Développement : Alexandra Zaïnal
Conception & Développement : Baudouin d'Aumeries
Co-Programmation & Développement : Marc-Olivier Méhu
Soutien technique & logistique : Manuel Goepfert

Contact : metmap@orbifly.com




SOURCES & CREDITS :

   NOAA